SpazioLink.com il tuo mini portale

Terremoti in Italia, posizione geografica

Spaziolink il MiniPortale

Home Sfondi Screenmates SuperEnalotto Posizione navi Terremoti Calendario feste Barzellette Frasi utili Giochi Meteo Gifs Software Ricerca
Lista dei terremoti in Italia in tempo reale dopo l'elaborazione dei valori rilevati dai sensori dislocati nelle zone interessate, comprendenti gli eventi sismici di elevata magnitudo sull'intero globo, per visualizzare la posizione dell'epicentro su Google Maps cliccare sul nome del luogo evidenziato in blu.
DATA ORA MAG ≥ 2 ZONA REGIONE LAT LONG PROF km
09/08/2020 22:08:23 ML 2.0 Mar Ionio Meridionale (MARE) Mare 37.29 15.82 17.0
09/08/2020 21:38:33 ML 2.0 Costa Siciliana nord-orientale (Messina) Mare 38.40 15.41 116.5
09/08/2020 16:59:56 ML 2.3 3 km a est di Sovramonte (BL) Veneto 46.05 11.83 10.3
09/08/2020 02:50:36 ML 2.8 Confine Austria-Germania (AUSTRIA, GERMANIA) Mondo 47.16 10.66 11.9
08/08/2020 21:44:45 ML 3.6 Confine Austria-Germania (AUSTRIA, GERMANIA) Mondo 47.16 10.65 14.2
08/08/2020 09:38:39 ML 2.1 Confine Italia-Slovenia (SLOVENIA) Mondo 46.27 13.66 8.3
08/08/2020 08:53:40 ML 2.7 Mar Ionio Meridionale (MARE) Mare 37.54 16.45 39.8
08/08/2020 08:07:11 ML 2.0 5 km a sud-est di Raddusa (CT) Sicilia 37.44 14.57 7.6
08/08/2020 00:55:47 ML 2.0 6 km nord-est Acquafondata (FR) Lazio 41.59 13.99 7.9
08/08/2020 00:07:51 ML 2.3 5 km a sud-est di Castel Sant`Angelo (RI) Lazio 42.36 13.07 9.3
07/08/2020 21:30:09 ML 2.0 Confine Italia-Slovenia (SLOVENIA) Mondo 46.32 13.52 10.9
07/08/2020 15:34:36 ML 2.6 7 km a ovest di Castelsaraceno (PZ) Basilicata 40.17 15.92 23.3
07/08/2020 15:18:58 mb 4.9 Norway (Sea) Mondo 78.61 6.72 15.6
07/08/2020 13:13:37 mb 4.7 Northern Algeria (Land: Algeria) Mondo 36.65 6.34 19.5
07/08/2020 10:52:31 ML 2.1 5 km a ovest di Castelsaraceno (PZ) Basilicata 40.18 15.93 14.1
07/08/2020 08:15:38 mb 4.8 Northern Algeria (Land: Algeria) Mondo 36.46 6.26 9.8
07/08/2020 01:36:54 Mwp 6.2 Prince Edward Islands, South Africa, region (Sea) Mondo -41.36 42.37 63.3
06/08/2020 20:28:44 ML 2.7 Confine Italia-Francia (FRANCIA) Mondo 45.33 7.04 9.9
06/08/2020 00:28:14 ML 2.3 4 km a sud-ovest di Fiastra (MC) Marche 43.01 13.12 7.1
05/08/2020 14:05:37 Mwp 6.4 Vanuatu Islands (Sea: Vanuatu) Mondo -16.13 168.03 182.8
05/08/2020 12:06:17 ML 2.0 8 km a ovest di Accumoli (RI) Lazio 42.71 13.15 10.1
05/08/2020 07:24:29 ML 2.1 5 km a sud-est di Massa Martana (PG) Umbria 42.74 12.56 7.6
05/08/2020 07:24:07 ML 2.8 4 km a sud di Accettura (MT) Basilicata 40.45 16.16 28.0
05/08/2020 07:14:19 ML 2.0 4 km a sud-est di Massa Martana (PG) Umbria 42.74 12.54 7.6
05/08/2020 01:21:20 ML 2.1 5 km a nord-ovest di Arquata del Tronto (AP) Marche 42.80 13.25 10.2
05/08/2020 01:19:46 ML 2.0 6 km a ovest di San Teodoro (ME) Sicilia 37.86 14.63 9.3
04/08/2020 19:23:51 ML 2.1 Tirreno Meridionale (MARE) Mare 38.50 15.28 131.8
04/08/2020 16:56:12 ML 2.0 Tirreno Meridionale (MARE) Mare 38.40 15.30 117.2
04/08/2020 16:43:27 ML 2.3 2 km a sud-ovest di Ussita (MC) Marche 42.93 13.13 10.2
04/08/2020 14:55:47 ML 2.3 4 km a ovest di San Teodoro (ME) Sicilia 37.84 14.65 8.8
04/08/2020 13:21:01 ML 2.6 1 km a ovest di Monteleone di Spoleto (PG) Umbria 42.66 12.94 9.9
04/08/2020 13:11:28 ML 2.2 4 km a ovest di San Teodoro (ME) Sicilia 37.84 14.65 6.9
04/08/2020 13:04:42 ML 2.2 2 km a sud-ovest di Ussita (MC) Marche 42.93 13.13 10.3
04/08/2020 12:47:45 ML 2.1 9 km a sud-est di Castelsantangelo sul Nera (MC) Marche 42.83 13.20 7.0
04/08/2020 12:40:07 ML 2.3 4 km a ovest di San Teodoro (ME) Sicilia 37.84 14.65 10.4
04/08/2020 12:06:43 ML 2.6 Tirreno Meridionale (MARE) Mare 38.77 15.58 155.4
04/08/2020 08:49:46 ML 2.8 3 km a sud-ovest di Ussita (MC) Marche 42.92 13.12 12.2
04/08/2020 08:15:29 ML 2.1 2 km a sud-ovest di Ussita (MC) Marche 42.93 13.13 10.6
04/08/2020 07:53:38 ML 2.2 1 km nord-est Sant`Eusanio Forconese (AQ) Abruzzo 42.30 13.54 8.1
03/08/2020 14:52:56 ML 2.0 2 km a est di Castelluccio Superiore (PZ) Basilicata 40.01 16.00 20.1
03/08/2020 10:56:18 ML 2.3 3 km a est di Norcia (PG) Umbria 42.80 13.13 8.0
03/08/2020 10:38:18 ML 2.7 5 km a sud-est di Massa Martana (PG) Umbria 42.74 12.56 9.0
03/08/2020 09:27:43 ML 2.3 V3 Tarvisio (ITALIA, AUSTRIA, SLOVENIA) Mondo 46.57 13.49 7.9
03/08/2020 04:07:05 Md 2.2 5 km a sud-ovest di Ottaviano (NA) Campania 40.82 14.43 0.1
Locations of visitors to this page (counting)
- subnet mask - partners - ipcheck - favicon - speedtest - I say i' sto 'cca - programmone